sensor_id;sensor_type;location;lat;lon;timestamp;temperature;humidity
7708;DHT22;3896;48.758;8.888;2023-07-02T00:01:12;18.90;99.90
7708;DHT22;3896;48.758;8.888;2023-07-02T00:03:38;18.80;99.90
7708;DHT22;3896;48.758;8.888;2023-07-02T00:06:04;18.80;99.90
7708;DHT22;3896;48.758;8.888;2023-07-02T00:08:30;18.70;99.90
7708;DHT22;3896;48.758;8.888;2023-07-02T00:10:55;18.70;99.90
7708;DHT22;3896;48.758;8.888;2023-07-02T00:13:21;18.70;99.90
7708;DHT22;3896;48.758;8.888;2023-07-02T00:15:46;18.70;99.90
7708;DHT22;3896;48.758;8.888;2023-07-02T00:18:12;18.60;99.90
7708;DHT22;3896;48.758;8.888;2023-07-02T00:20:41;18.60;99.90
7708;DHT22;3896;48.758;8.888;2023-07-02T00:23:07;18.50;99.90
7708;DHT22;3896;48.758;8.888;2023-07-02T00:25:36;18.50;99.90
7708;DHT22;3896;48.758;8.888;2023-07-02T00:28:02;18.50;99.90
7708;DHT22;3896;48.758;8.888;2023-07-02T00:30:28;18.40;99.90
7708;DHT22;3896;48.758;8.888;2023-07-02T00:32:55;18.40;99.90
7708;DHT22;3896;48.758;8.888;2023-07-02T00:35:21;18.40;99.90
7708;DHT22;3896;48.758;8.888;2023-07-02T00:37:46;18.40;99.90
7708;DHT22;3896;48.758;8.888;2023-07-02T00:40:12;18.30;99.90
7708;DHT22;3896;48.758;8.888;2023-07-02T00:42:38;18.30;99.90
7708;DHT22;3896;48.758;8.888;2023-07-02T00:45:04;18.30;99.90
7708;DHT22;3896;48.758;8.888;2023-07-02T00:47:34;18.30;99.90
7708;DHT22;3896;48.758;8.888;2023-07-02T00:50:00;18.20;99.90
7708;DHT22;3896;48.758;8.888;2023-07-02T00:52:27;18.20;99.90
7708;DHT22;3896;48.758;8.888;2023-07-02T00:54:52;18.10;99.90
7708;DHT22;3896;48.758;8.888;2023-07-02T00:57:18;18.10;99.90
7708;DHT22;3896;48.758;8.888;2023-07-02T00:59:44;18.10;99.90
7708;DHT22;3896;48.758;8.888;2023-07-02T01:02:10;18.10;99.90
7708;DHT22;3896;48.758;8.888;2023-07-02T01:04:36;18.10;99.90
7708;DHT22;3896;48.758;8.888;2023-07-02T01:07:02;18.10;99.90
7708;DHT22;3896;48.758;8.888;2023-07-02T01:09:34;18.10;99.90
7708;DHT22;3896;48.758;8.888;2023-07-02T01:12:05;18.10;99.90
7708;DHT22;3896;48.758;8.888;2023-07-02T01:14:38;18.00;99.90
7708;DHT22;3896;48.758;8.888;2023-07-02T01:17:06;18.00;99.90
7708;DHT22;3896;48.758;8.888;2023-07-02T01:19:57;18.00;99.90
7708;DHT22;3896;48.758;8.888;2023-07-02T01:22:28;17.90;99.90
7708;DHT22;3896;48.758;8.888;2023-07-02T01:24:55;17.90;99.90
7708;DHT22;3896;48.758;8.888;2023-07-02T01:27:20;17.90;99.90
7708;DHT22;3896;48.758;8.888;2023-07-02T01:29:47;17.90;99.90
7708;DHT22;3896;48.758;8.888;2023-07-02T01:32:15;17.90;99.90
7708;DHT22;3896;48.758;8.888;2023-07-02T01:34:41;17.80;99.90
7708;DHT22;3896;48.758;8.888;2023-07-02T01:37:09;17.80;99.90
7708;DHT22;3896;48.758;8.888;2023-07-02T01:39:35;17.70;99.90
7708;DHT22;3896;48.758;8.888;2023-07-02T01:42:15;17.70;99.90
7708;DHT22;3896;48.758;8.888;2023-07-02T01:44:41;17.60;99.90
7708;DHT22;3896;48.758;8.888;2023-07-02T01:47:08;17.60;99.90
7708;DHT22;3896;48.758;8.888;2023-07-02T01:49:33;17.60;99.90
7708;DHT22;3896;48.758;8.888;2023-07-02T01:52:00;17.60;99.90
7708;DHT22;3896;48.758;8.888;2023-07-02T01:54:27;17.50;99.90
7708;DHT22;3896;48.758;8.888;2023-07-02T01:56:54;17.50;99.90
7708;DHT22;3896;48.758;8.888;2023-07-02T01:59:19;17.50;99.90
7708;DHT22;3896;48.758;8.888;2023-07-02T02:01:45;17.50;99.90
7708;DHT22;3896;48.758;8.888;2023-07-02T02:04:11;17.40;99.90
7708;DHT22;3896;48.758;8.888;2023-07-02T02:06:38;17.40;99.90
7708;DHT22;3896;48.758;8.888;2023-07-02T02:09:05;17.40;99.90
7708;DHT22;3896;48.758;8.888;2023-07-02T02:11:31;17.40;99.90
7708;DHT22;3896;48.758;8.888;2023-07-02T02:13:57;17.40;99.90
7708;DHT22;3896;48.758;8.888;2023-07-02T02:16:24;17.40;99.90
7708;DHT22;3896;48.758;8.888;2023-07-02T02:18:49;17.40;99.90
7708;DHT22;3896;48.758;8.888;2023-07-02T02:21:18;17.40;99.90
7708;DHT22;3896;48.758;8.888;2023-07-02T02:23:44;17.40;99.90
7708;DHT22;3896;48.758;8.888;2023-07-02T02:26:10;17.40;99.90
7708;DHT22;3896;48.758;8.888;2023-07-02T02:28:36;17.30;99.90
7708;DHT22;3896;48.758;8.888;2023-07-02T02:31:01;17.30;99.90
7708;DHT22;3896;48.758;8.888;2023-07-02T02:33:27;17.30;99.90
7708;DHT22;3896;48.758;8.888;2023-07-02T02:35:53;17.30;99.90
7708;DHT22;3896;48.758;8.888;2023-07-02T02:38:18;17.30;99.90
7708;DHT22;3896;48.758;8.888;2023-07-02T02:40:44;17.30;99.90
7708;DHT22;3896;48.758;8.888;2023-07-02T02:43:09;17.30;99.90
7708;DHT22;3896;48.758;8.888;2023-07-02T02:45:35;17.30;99.90
7708;DHT22;3896;48.758;8.888;2023-07-02T02:48:01;17.30;99.90
7708;DHT22;3896;48.758;8.888;2023-07-02T02:50:26;17.30;99.90
7708;DHT22;3896;48.758;8.888;2023-07-02T02:52:52;17.30;99.90
7708;DHT22;3896;48.758;8.888;2023-07-02T02:55:18;17.30;99.90
7708;DHT22;3896;48.758;8.888;2023-07-02T02:57:44;17.30;99.90
7708;DHT22;3896;48.758;8.888;2023-07-02T03:00:10;17.20;99.90
7708;DHT22;3896;48.758;8.888;2023-07-02T03:02:37;17.30;99.90
7708;DHT22;3896;48.758;8.888;2023-07-02T03:05:02;17.30;99.90
7708;DHT22;3896;48.758;8.888;2023-07-02T03:07:29;17.30;99.90
7708;DHT22;3896;48.758;8.888;2023-07-02T03:09:55;17.20;99.90
7708;DHT22;3896;48.758;8.888;2023-07-02T03:12:21;17.20;99.90
7708;DHT22;3896;48.758;8.888;2023-07-02T03:14:47;17.20;99.90
7708;DHT22;3896;48.758;8.888;2023-07-02T03:17:17;17.20;99.90
7708;DHT22;3896;48.758;8.888;2023-07-02T03:19:42;17.30;99.90
7708;DHT22;3896;48.758;8.888;2023-07-02T03:22:08;17.20;99.90
7708;DHT22;3896;48.758;8.888;2023-07-02T03:24:33;17.20;99.90
7708;DHT22;3896;48.758;8.888;2023-07-02T03:26:59;17.20;99.90
7708;DHT22;3896;48.758;8.888;2023-07-02T03:29:24;17.10;99.90
7708;DHT22;3896;48.758;8.888;2023-07-02T03:31:50;17.10;99.90
7708;DHT22;3896;48.758;8.888;2023-07-02T03:34:15;17.10;99.90
7708;DHT22;3896;48.758;8.888;2023-07-02T03:36:41;17.10;99.90
7708;DHT22;3896;48.758;8.888;2023-07-02T03:39:06;17.10;99.90
7708;DHT22;3896;48.758;8.888;2023-07-02T03:41:32;17.10;99.90
7708;DHT22;3896;48.758;8.888;2023-07-02T03:43:57;17.10;99.90
7708;DHT22;3896;48.758;8.888;2023-07-02T03:46:23;17.10;99.90
7708;DHT22;3896;48.758;8.888;2023-07-02T03:48:48;17.10;99.90
7708;DHT22;3896;48.758;8.888;2023-07-02T03:51:14;17.10;99.90
7708;DHT22;3896;48.758;8.888;2023-07-02T03:53:43;17.00;99.90
7708;DHT22;3896;48.758;8.888;2023-07-02T03:56:09;17.00;99.90
7708;DHT22;3896;48.758;8.888;2023-07-02T03:58:34;17.00;99.90
7708;DHT22;3896;48.758;8.888;2023-07-02T04:01:00;17.00;99.90
7708;DHT22;3896;48.758;8.888;2023-07-02T04:03:26;17.00;99.90
7708;DHT22;3896;48.758;8.888;2023-07-02T04:05:51;17.00;99.90
7708;DHT22;3896;48.758;8.888;2023-07-02T04:08:17;17.00;99.90
7708;DHT22;3896;48.758;8.888;2023-07-02T04:10:43;17.00;99.90
7708;DHT22;3896;48.758;8.888;2023-07-02T04:13:08;17.00;99.90
7708;DHT22;3896;48.758;8.888;2023-07-02T04:15:35;17.00;99.90
7708;DHT22;3896;48.758;8.888;2023-07-02T04:18:00;17.00;99.90
7708;DHT22;3896;48.758;8.888;2023-07-02T04:20:27;17.00;99.90
7708;DHT22;3896;48.758;8.888;2023-07-02T04:22:53;17.00;99.90
7708;DHT22;3896;48.758;8.888;2023-07-02T04:25:19;17.00;99.90
7708;DHT22;3896;48.758;8.888;2023-07-02T04:27:45;17.00;99.90
7708;DHT22;3896;48.758;8.888;2023-07-02T04:30:11;17.00;99.90
7708;DHT22;3896;48.758;8.888;2023-07-02T04:32:37;17.00;99.90
7708;DHT22;3896;48.758;8.888;2023-07-02T04:35:07;17.00;99.90
7708;DHT22;3896;48.758;8.888;2023-07-02T04:37:33;17.00;99.90
7708;DHT22;3896;48.758;8.888;2023-07-02T04:39:59;17.00;99.90
7708;DHT22;3896;48.758;8.888;2023-07-02T04:42:25;17.00;99.90
7708;DHT22;3896;48.758;8.888;2023-07-02T04:44:53;17.00;99.90
7708;DHT22;3896;48.758;8.888;2023-07-02T04:47:19;17.00;99.90
7708;DHT22;3896;48.758;8.888;2023-07-02T04:49:46;17.00;99.90
7708;DHT22;3896;48.758;8.888;2023-07-02T04:52:12;17.00;99.90
7708;DHT22;3896;48.758;8.888;2023-07-02T04:54:37;17.00;99.90
7708;DHT22;3896;48.758;8.888;2023-07-02T04:57:03;17.00;99.90
7708;DHT22;3896;48.758;8.888;2023-07-02T04:59:29;17.10;99.90
7708;DHT22;3896;48.758;8.888;2023-07-02T05:01:54;17.10;99.90
7708;DHT22;3896;48.758;8.888;2023-07-02T05:04:20;17.10;99.90
7708;DHT22;3896;48.758;8.888;2023-07-02T05:06:46;17.10;99.90
7708;DHT22;3896;48.758;8.888;2023-07-02T05:09:11;17.10;99.90
7708;DHT22;3896;48.758;8.888;2023-07-02T05:11:37;17.10;99.90
7708;DHT22;3896;48.758;8.888;2023-07-02T05:14:02;17.10;99.90
7708;DHT22;3896;48.758;8.888;2023-07-02T05:16:28;17.10;99.90
7708;DHT22;3896;48.758;8.888;2023-07-02T05:18:54;17.20;99.90
7708;DHT22;3896;48.758;8.888;2023-07-02T05:21:20;17.20;99.90
7708;DHT22;3896;48.758;8.888;2023-07-02T05:23:45;17.20;99.90
7708;DHT22;3896;48.758;8.888;2023-07-02T05:26:11;17.20;99.90
7708;DHT22;3896;48.758;8.888;2023-07-02T05:28:36;17.20;99.90
7708;DHT22;3896;48.758;8.888;2023-07-02T05:31:02;17.30;99.90
7708;DHT22;3896;48.758;8.888;2023-07-02T05:33:27;17.20;99.90
7708;DHT22;3896;48.758;8.888;2023-07-02T05:35:53;17.20;99.90
7708;DHT22;3896;48.758;8.888;2023-07-02T05:38:19;17.20;99.90
7708;DHT22;3896;48.758;8.888;2023-07-02T05:40:45;17.20;99.90
7708;DHT22;3896;48.758;8.888;2023-07-02T05:43:11;17.20;99.90
7708;DHT22;3896;48.758;8.888;2023-07-02T05:45:37;17.30;99.90
7708;DHT22;3896;48.758;8.888;2023-07-02T05:48:02;17.30;99.90
7708;DHT22;3896;48.758;8.888;2023-07-02T05:50:28;17.30;99.90
7708;DHT22;3896;48.758;8.888;2023-07-02T05:52:53;17.30;99.90
7708;DHT22;3896;48.758;8.888;2023-07-02T05:55:19;17.30;99.90
7708;DHT22;3896;48.758;8.888;2023-07-02T05:57:45;17.30;99.90
7708;DHT22;3896;48.758;8.888;2023-07-02T06:00:11;17.40;99.90
7708;DHT22;3896;48.758;8.888;2023-07-02T06:02:37;17.40;99.90
7708;DHT22;3896;48.758;8.888;2023-07-02T06:05:03;17.40;99.90
7708;DHT22;3896;48.758;8.888;2023-07-02T06:07:29;17.40;99.90
7708;DHT22;3896;48.758;8.888;2023-07-02T06:09:55;17.50;99.90
7708;DHT22;3896;48.758;8.888;2023-07-02T06:12:21;17.40;99.90
7708;DHT22;3896;48.758;8.888;2023-07-02T06:14:47;17.50;99.90
7708;DHT22;3896;48.758;8.888;2023-07-02T06:17:12;17.50;99.90
7708;DHT22;3896;48.758;8.888;2023-07-02T06:19:38;17.50;99.90
7708;DHT22;3896;48.758;8.888;2023-07-02T06:22:04;17.60;99.90
7708;DHT22;3896;48.758;8.888;2023-07-02T06:24:30;17.60;99.90
7708;DHT22;3896;48.758;8.888;2023-07-02T06:26:56;17.60;99.90
7708;DHT22;3896;48.758;8.888;2023-07-02T06:29:22;17.70;99.90
7708;DHT22;3896;48.758;8.888;2023-07-02T06:31:48;17.70;99.90
7708;DHT22;3896;48.758;8.888;2023-07-02T06:34:14;17.80;99.90
7708;DHT22;3896;48.758;8.888;2023-07-02T06:36:40;17.80;99.90
7708;DHT22;3896;48.758;8.888;2023-07-02T06:39:05;17.80;99.90
7708;DHT22;3896;48.758;8.888;2023-07-02T06:41:31;17.80;99.90
7708;DHT22;3896;48.758;8.888;2023-07-02T06:43:56;17.90;99.90
7708;DHT22;3896;48.758;8.888;2023-07-02T06:46:22;18.00;99.60
7708;DHT22;3896;48.758;8.888;2023-07-02T06:48:48;17.90;99.60
7708;DHT22;3896;48.758;8.888;2023-07-02T06:51:13;18.00;99.00
7708;DHT22;3896;48.758;8.888;2023-07-02T06:53:41;18.00;98.80
7708;DHT22;3896;48.758;8.888;2023-07-02T06:56:10;18.10;98.00
7708;DHT22;3896;48.758;8.888;2023-07-02T06:58:35;18.10;97.40
7708;DHT22;3896;48.758;8.888;2023-07-02T07:01:01;18.10;96.50
7708;DHT22;3896;48.758;8.888;2023-07-02T07:03:27;18.20;96.20
7708;DHT22;3896;48.758;8.888;2023-07-02T07:05:53;18.20;95.70
7708;DHT22;3896;48.758;8.888;2023-07-02T07:08:18;18.30;95.20
7708;DHT22;3896;48.758;8.888;2023-07-02T07:10:44;18.30;94.90
7708;DHT22;3896;48.758;8.888;2023-07-02T07:13:13;18.30;94.70
7708;DHT22;3896;48.758;8.888;2023-07-02T07:15:39;18.40;94.40
7708;DHT22;3896;48.758;8.888;2023-07-02T07:18:04;18.40;94.30
7708;DHT22;3896;48.758;8.888;2023-07-02T07:20:30;18.40;93.40
7708;DHT22;3896;48.758;8.888;2023-07-02T07:22:56;18.50;93.10
7708;DHT22;3896;48.758;8.888;2023-07-02T07:25:22;18.50;93.10
7708;DHT22;3896;48.758;8.888;2023-07-02T07:27:48;18.60;92.80
7708;DHT22;3896;48.758;8.888;2023-07-02T07:30:14;18.60;92.60
7708;DHT22;3896;48.758;8.888;2023-07-02T07:32:48;18.70;92.10
7708;DHT22;3896;48.758;8.888;2023-07-02T07:35:13;18.70;91.90
7708;DHT22;3896;48.758;8.888;2023-07-02T07:37:39;18.80;91.60
7708;DHT22;3896;48.758;8.888;2023-07-02T07:40:05;18.80;91.40
7708;DHT22;3896;48.758;8.888;2023-07-02T07:42:31;18.80;91.20
7708;DHT22;3896;48.758;8.888;2023-07-02T07:44:57;19.00;91.00
7708;DHT22;3896;48.758;8.888;2023-07-02T07:47:22;19.00;90.80
7708;DHT22;3896;48.758;8.888;2023-07-02T07:49:48;19.10;90.60
7708;DHT22;3896;48.758;8.888;2023-07-02T07:52:13;19.10;90.30
7708;DHT22;3896;48.758;8.888;2023-07-02T07:54:39;19.20;89.70
7708;DHT22;3896;48.758;8.888;2023-07-02T07:57:05;19.30;89.00
7708;DHT22;3896;48.758;8.888;2023-07-02T07:59:30;19.30;88.60
7708;DHT22;3896;48.758;8.888;2023-07-02T08:01:56;19.40;88.00
7708;DHT22;3896;48.758;8.888;2023-07-02T08:04:21;19.50;87.50
7708;DHT22;3896;48.758;8.888;2023-07-02T08:06:47;19.60;87.40
7708;DHT22;3896;48.758;8.888;2023-07-02T08:09:12;19.70;87.40
7708;DHT22;3896;48.758;8.888;2023-07-02T08:11:38;19.70;86.60
7708;DHT22;3896;48.758;8.888;2023-07-02T08:14:03;19.80;86.30
7708;DHT22;3896;48.758;8.888;2023-07-02T08:16:29;19.90;85.80
7708;DHT22;3896;48.758;8.888;2023-07-02T08:18:54;20.00;84.70
7708;DHT22;3896;48.758;8.888;2023-07-02T08:21:20;20.10;84.00
7708;DHT22;3896;48.758;8.888;2023-07-02T08:23:46;20.20;83.20
7708;DHT22;3896;48.758;8.888;2023-07-02T08:26:11;20.30;82.10
7708;DHT22;3896;48.758;8.888;2023-07-02T08:28:37;20.40;81.20
7708;DHT22;3896;48.758;8.888;2023-07-02T08:31:06;20.50;80.50
7708;DHT22;3896;48.758;8.888;2023-07-02T08:33:31;20.70;79.60
7708;DHT22;3896;48.758;8.888;2023-07-02T08:35:57;20.90;78.60
7708;DHT22;3896;48.758;8.888;2023-07-02T08:38:23;21.00;77.80
7708;DHT22;3896;48.758;8.888;2023-07-02T08:40:52;21.10;77.20
7708;DHT22;3896;48.758;8.888;2023-07-02T08:43:17;21.20;77.10
7708;DHT22;3896;48.758;8.888;2023-07-02T08:45:43;21.30;75.30
7708;DHT22;3896;48.758;8.888;2023-07-02T08:48:10;21.40;75.40
7708;DHT22;3896;48.758;8.888;2023-07-02T08:50:36;21.50;74.80
7708;DHT22;3896;48.758;8.888;2023-07-02T08:53:02;21.60;73.80
7708;DHT22;3896;48.758;8.888;2023-07-02T08:55:28;21.70;73.30
7708;DHT22;3896;48.758;8.888;2023-07-02T08:57:56;21.80;73.30
7708;DHT22;3896;48.758;8.888;2023-07-02T09:00:25;21.90;72.30
7708;DHT22;3896;48.758;8.888;2023-07-02T09:02:51;22.00;71.60
7708;DHT22;3896;48.758;8.888;2023-07-02T09:05:16;22.10;71.30
7708;DHT22;3896;48.758;8.888;2023-07-02T09:07:47;22.20;70.70
7708;DHT22;3896;48.758;8.888;2023-07-02T09:10:25;22.40;69.90
7708;DHT22;3896;48.758;8.888;2023-07-02T09:13:02;22.50;69.10
7708;DHT22;3896;48.758;8.888;2023-07-02T09:15:35;22.70;69.20
7708;DHT22;3896;48.758;8.888;2023-07-02T09:18:02;22.80;69.10
7708;DHT22;3896;48.758;8.888;2023-07-02T09:20:33;22.90;68.30
7708;DHT22;3896;48.758;8.888;2023-07-02T09:22:59;23.10;67.50
7708;DHT22;3896;48.758;8.888;2023-07-02T09:25:37;23.20;66.30
7708;DHT22;3896;48.758;8.888;2023-07-02T09:28:17;23.20;65.80
7708;DHT22;3896;48.758;8.888;2023-07-02T09:30:56;23.30;65.60
7708;DHT22;3896;48.758;8.888;2023-07-02T09:33:27;23.40;65.10
7708;DHT22;3896;48.758;8.888;2023-07-02T09:35:53;23.60;64.20
7708;DHT22;3896;48.758;8.888;2023-07-02T09:38:22;23.80;63.60
7708;DHT22;3896;48.758;8.888;2023-07-02T09:40:51;23.90;62.90
7708;DHT22;3896;48.758;8.888;2023-07-02T09:43:18;24.00;62.00
7708;DHT22;3896;48.758;8.888;2023-07-02T09:45:48;24.20;61.40
7708;DHT22;3896;48.758;8.888;2023-07-02T09:48:16;24.30;60.80
7708;DHT22;3896;48.758;8.888;2023-07-02T09:50:47;24.40;60.20
7708;DHT22;3896;48.758;8.888;2023-07-02T09:53:13;24.50;60.40
7708;DHT22;3896;48.758;8.888;2023-07-02T09:55:41;24.50;60.30
7708;DHT22;3896;48.758;8.888;2023-07-02T09:58:06;24.60;59.60
7708;DHT22;3896;48.758;8.888;2023-07-02T10:00:33;24.70;59.30
7708;DHT22;3896;48.758;8.888;2023-07-02T10:02:59;24.70;59.20
7708;DHT22;3896;48.758;8.888;2023-07-02T10:05:33;24.80;59.60
7708;DHT22;3896;48.758;8.888;2023-07-02T10:08:11;24.80;59.50
7708;DHT22;3896;48.758;8.888;2023-07-02T10:10:37;24.90;59.60
7708;DHT22;3896;48.758;8.888;2023-07-02T10:13:03;25.00;59.20
7708;DHT22;3896;48.758;8.888;2023-07-02T10:15:29;25.10;58.80
7708;DHT22;3896;48.758;8.888;2023-07-02T10:17:57;25.10;58.30
7708;DHT22;3896;48.758;8.888;2023-07-02T10:20:40;25.10;58.20
7708;DHT22;3896;48.758;8.888;2023-07-02T10:23:08;25.10;58.40
7708;DHT22;3896;48.758;8.888;2023-07-02T10:25:36;25.20;58.50
7708;DHT22;3896;48.758;8.888;2023-07-02T10:28:19;25.20;57.80
7708;DHT22;3896;48.758;8.888;2023-07-02T10:30:45;25.30;57.10
7708;DHT22;3896;48.758;8.888;2023-07-02T10:33:15;25.50;56.30
7708;DHT22;3896;48.758;8.888;2023-07-02T10:35:42;25.60;55.50
7708;DHT22;3896;48.758;8.888;2023-07-02T10:38:20;25.70;54.80
7708;DHT22;3896;48.758;8.888;2023-07-02T10:40:46;25.70;54.70
7708;DHT22;3896;48.758;8.888;2023-07-02T10:43:12;25.70;54.50
7708;DHT22;3896;48.758;8.888;2023-07-02T10:45:39;25.70;54.70
7708;DHT22;3896;48.758;8.888;2023-07-02T10:48:11;25.70;54.90
7708;DHT22;3896;48.758;8.888;2023-07-02T10:50:36;25.80;55.10
7708;DHT22;3896;48.758;8.888;2023-07-02T10:53:03;25.90;54.70
7708;DHT22;3896;48.758;8.888;2023-07-02T10:55:28;26.00;54.00
7708;DHT22;3896;48.758;8.888;2023-07-02T10:58:08;26.20;53.80
7708;DHT22;3896;48.758;8.888;2023-07-02T11:00:52;26.30;53.10
7708;DHT22;3896;48.758;8.888;2023-07-02T11:03:23;26.30;53.40
7708;DHT22;3896;48.758;8.888;2023-07-02T11:05:50;26.30;53.40
7708;DHT22;3896;48.758;8.888;2023-07-02T11:08:16;26.40;53.00
7708;DHT22;3896;48.758;8.888;2023-07-02T11:10:41;26.50;52.70
7708;DHT22;3896;48.758;8.888;2023-07-02T11:13:14;26.50;52.20
7708;DHT22;3896;48.758;8.888;2023-07-02T11:15:40;26.70;52.30
7708;DHT22;3896;48.758;8.888;2023-07-02T11:18:11;26.80;51.40
7708;DHT22;3896;48.758;8.888;2023-07-02T11:20:37;27.00;50.90
7708;DHT22;3896;48.758;8.888;2023-07-02T11:23:03;27.10;50.70
7708;DHT22;3896;48.758;8.888;2023-07-02T11:25:30;27.20;50.70
7708;DHT22;3896;48.758;8.888;2023-07-02T11:28:03;27.30;50.60
7708;DHT22;3896;48.758;8.888;2023-07-02T11:30:28;27.40;49.80
7708;DHT22;3896;48.758;8.888;2023-07-02T11:32:55;27.40;49.00
7708;DHT22;3896;48.758;8.888;2023-07-02T11:35:22;27.50;48.70
7708;DHT22;3896;48.758;8.888;2023-07-02T11:37:52;27.60;48.00
7708;DHT22;3896;48.758;8.888;2023-07-02T11:40:18;27.60;47.70
7708;DHT22;3896;48.758;8.888;2023-07-02T11:42:44;27.60;47.60
7708;DHT22;3896;48.758;8.888;2023-07-02T11:45:10;27.70;47.20
7708;DHT22;3896;48.758;8.888;2023-07-02T11:47:35;27.80;47.50
7708;DHT22;3896;48.758;8.888;2023-07-02T11:50:03;27.90;47.30
7708;DHT22;3896;48.758;8.888;2023-07-02T11:52:28;28.00;46.70
7708;DHT22;3896;48.758;8.888;2023-07-02T11:54:54;28.00;46.40
7708;DHT22;3896;48.758;8.888;2023-07-02T11:57:20;28.10;46.30
7708;DHT22;3896;48.758;8.888;2023-07-02T11:59:47;28.20;46.00
7708;DHT22;3896;48.758;8.888;2023-07-02T12:02:12;28.20;45.30
7708;DHT22;3896;48.758;8.888;2023-07-02T12:04:39;28.50;45.40
7708;DHT22;3896;48.758;8.888;2023-07-02T12:07:04;28.60;44.60
7708;DHT22;3896;48.758;8.888;2023-07-02T12:09:30;28.70;44.50
7708;DHT22;3896;48.758;8.888;2023-07-02T12:11:55;28.90;44.50
7708;DHT22;3896;48.758;8.888;2023-07-02T12:14:21;29.00;44.20
7708;DHT22;3896;48.758;8.888;2023-07-02T12:16:46;29.10;43.60
7708;DHT22;3896;48.758;8.888;2023-07-02T12:19:12;29.30;43.60
7708;DHT22;3896;48.758;8.888;2023-07-02T12:21:38;29.40;43.80
7708;DHT22;3896;48.758;8.888;2023-07-02T12:24:03;29.50;43.60
7708;DHT22;3896;48.758;8.888;2023-07-02T12:26:34;29.70;43.40
7708;DHT22;3896;48.758;8.888;2023-07-02T12:29:00;29.80;42.60
7708;DHT22;3896;48.758;8.888;2023-07-02T12:31:27;29.90;42.10
7708;DHT22;3896;48.758;8.888;2023-07-02T12:33:52;30.10;41.90
7708;DHT22;3896;48.758;8.888;2023-07-02T12:36:18;30.20;41.90
7708;DHT22;3896;48.758;8.888;2023-07-02T12:38:43;30.40;41.40
7708;DHT22;3896;48.758;8.888;2023-07-02T12:41:09;30.40;40.70
7708;DHT22;3896;48.758;8.888;2023-07-02T12:43:35;30.60;40.50
7708;DHT22;3896;48.758;8.888;2023-07-02T12:46:00;30.80;40.10
7708;DHT22;3896;48.758;8.888;2023-07-02T12:48:25;30.90;39.70
7708;DHT22;3896;48.758;8.888;2023-07-02T12:50:59;30.90;39.50
7708;DHT22;3896;48.758;8.888;2023-07-02T12:53:25;31.10;39.40
7708;DHT22;3896;48.758;8.888;2023-07-02T12:55:51;31.20;38.90
7708;DHT22;3896;48.758;8.888;2023-07-02T12:58:17;31.30;38.90
7708;DHT22;3896;48.758;8.888;2023-07-02T13:00:42;31.40;38.30
7708;DHT22;3896;48.758;8.888;2023-07-02T13:03:11;31.50;38.10
7708;DHT22;3896;48.758;8.888;2023-07-02T13:05:37;31.60;37.90
7708;DHT22;3896;48.758;8.888;2023-07-02T13:08:03;31.70;38.10
7708;DHT22;3896;48.758;8.888;2023-07-02T13:10:29;31.70;38.10
7708;DHT22;3896;48.758;8.888;2023-07-02T13:12:55;31.90;38.00
7708;DHT22;3896;48.758;8.888;2023-07-02T13:15:21;32.00;37.60
7708;DHT22;3896;48.758;8.888;2023-07-02T13:17:46;32.10;37.40
7708;DHT22;3896;48.758;8.888;2023-07-02T13:20:12;32.20;37.20
7708;DHT22;3896;48.758;8.888;2023-07-02T13:22:38;32.30;37.00
7708;DHT22;3896;48.758;8.888;2023-07-02T13:25:04;32.30;37.30
7708;DHT22;3896;48.758;8.888;2023-07-02T13:27:30;32.40;37.00
7708;DHT22;3896;48.758;8.888;2023-07-02T13:29:55;32.50;37.50
7708;DHT22;3896;48.758;8.888;2023-07-02T13:32:21;32.50;37.00
7708;DHT22;3896;48.758;8.888;2023-07-02T13:34:47;32.60;36.70
7708;DHT22;3896;48.758;8.888;2023-07-02T13:37:12;32.70;36.10
7708;DHT22;3896;48.758;8.888;2023-07-02T13:39:39;32.80;36.20
7708;DHT22;3896;48.758;8.888;2023-07-02T13:42:05;33.00;35.90
7708;DHT22;3896;48.758;8.888;2023-07-02T13:44:31;33.10;35.50
7708;DHT22;3896;48.758;8.888;2023-07-02T13:46:57;33.20;35.40
7708;DHT22;3896;48.758;8.888;2023-07-02T13:49:23;33.30;35.20
7708;DHT22;3896;48.758;8.888;2023-07-02T13:51:48;33.30;35.10
7708;DHT22;3896;48.758;8.888;2023-07-02T13:54:16;33.40;35.10
7708;DHT22;3896;48.758;8.888;2023-07-02T13:56:41;33.50;34.70
7708;DHT22;3896;48.758;8.888;2023-07-02T13:59:07;33.60;34.30
7708;DHT22;3896;48.758;8.888;2023-07-02T14:01:33;33.70;33.90
7708;DHT22;3896;48.758;8.888;2023-07-02T14:04:00;33.90;33.70
7708;DHT22;3896;48.758;8.888;2023-07-02T14:06:25;33.90;33.80
7708;DHT22;3896;48.758;8.888;2023-07-02T14:08:51;33.90;33.90
7708;DHT22;3896;48.758;8.888;2023-07-02T14:11:17;33.90;34.10
7708;DHT22;3896;48.758;8.888;2023-07-02T14:13:43;34.10;34.20
7708;DHT22;3896;48.758;8.888;2023-07-02T14:16:09;34.10;33.70
7708;DHT22;3896;48.758;8.888;2023-07-02T14:18:34;34.20;33.40
7708;DHT22;3896;48.758;8.888;2023-07-02T14:21:00;34.20;33.30
7708;DHT22;3896;48.758;8.888;2023-07-02T14:23:26;34.20;33.40
7708;DHT22;3896;48.758;8.888;2023-07-02T14:25:52;34.20;33.40
7708;DHT22;3896;48.758;8.888;2023-07-02T14:28:17;34.20;33.40
7708;DHT22;3896;48.758;8.888;2023-07-02T14:30:43;34.20;33.00
7708;DHT22;3896;48.758;8.888;2023-07-02T14:33:09;34.20;33.20
7708;DHT22;3896;48.758;8.888;2023-07-02T14:35:35;34.20;32.90
7708;DHT22;3896;48.758;8.888;2023-07-02T14:38:01;34.20;32.60
7708;DHT22;3896;48.758;8.888;2023-07-02T14:40:26;34.20;32.60
7708;DHT22;3896;48.758;8.888;2023-07-02T14:42:52;34.20;32.70
7708;DHT22;3896;48.758;8.888;2023-07-02T14:45:18;34.10;32.80
7708;DHT22;3896;48.758;8.888;2023-07-02T14:47:43;34.10;33.10
7708;DHT22;3896;48.758;8.888;2023-07-02T14:50:09;34.10;33.00
7708;DHT22;3896;48.758;8.888;2023-07-02T14:52:34;34.00;33.40
7708;DHT22;3896;48.758;8.888;2023-07-02T14:55:00;34.00;33.60
7708;DHT22;3896;48.758;8.888;2023-07-02T14:57:27;33.90;33.60
7708;DHT22;3896;48.758;8.888;2023-07-02T14:59:52;34.00;33.30
7708;DHT22;3896;48.758;8.888;2023-07-02T15:02:18;33.90;34.10
7708;DHT22;3896;48.758;8.888;2023-07-02T15:04:44;33.90;33.20
7708;DHT22;3896;48.758;8.888;2023-07-02T15:07:10;33.90;33.60
7708;DHT22;3896;48.758;8.888;2023-07-02T15:09:37;33.80;33.50
7708;DHT22;3896;48.758;8.888;2023-07-02T15:12:02;33.70;33.20
7708;DHT22;3896;48.758;8.888;2023-07-02T15:14:28;33.60;33.00
7708;DHT22;3896;48.758;8.888;2023-07-02T15:16:53;33.60;33.30
7708;DHT22;3896;48.758;8.888;2023-07-02T15:19:19;33.40;33.20
7708;DHT22;3896;48.758;8.888;2023-07-02T15:21:45;33.30;33.50
7708;DHT22;3896;48.758;8.888;2023-07-02T15:24:11;33.30;33.90
7708;DHT22;3896;48.758;8.888;2023-07-02T15:26:38;33.30;33.80
7708;DHT22;3896;48.758;8.888;2023-07-02T15:29:05;33.30;33.60
7708;DHT22;3896;48.758;8.888;2023-07-02T15:31:30;33.20;33.70
7708;DHT22;3896;48.758;8.888;2023-07-02T15:33:56;33.10;33.50
7708;DHT22;3896;48.758;8.888;2023-07-02T15:36:21;33.10;33.80
7708;DHT22;3896;48.758;8.888;2023-07-02T15:38:48;33.10;33.90
7708;DHT22;3896;48.758;8.888;2023-07-02T15:41:16;33.00;33.80
7708;DHT22;3896;48.758;8.888;2023-07-02T15:43:43;32.90;33.70
7708;DHT22;3896;48.758;8.888;2023-07-02T15:46:11;32.90;34.00
7708;DHT22;3896;48.758;8.888;2023-07-02T15:48:37;32.80;33.90
7708;DHT22;3896;48.758;8.888;2023-07-02T15:51:04;32.70;34.00
7708;DHT22;3896;48.758;8.888;2023-07-02T15:53:31;32.60;34.20
7708;DHT22;3896;48.758;8.888;2023-07-02T15:55:58;32.50;34.40
7708;DHT22;3896;48.758;8.888;2023-07-02T15:58:24;32.40;34.40